Time;durP1;ratioP1;P1;durP2;ratioP2;P2;SDS_P1;SDS_P2;PMS_P1;PMS_P2;Temp;Humidity;BMP_temperature;BMP_pressure;BME280_temperature;BME280_humidity;BME280_pressure;Samples;Min_cycle;Max_cycle;Signal;HPM_P1;HPM_P2
2022/09/16 00:01:50;;;;;;;16.77;6.43;;;;;;;10.57;100.00;98537.97;4216007;28;20748;-65
2022/09/16 00:04:17;;;;;;;20.83;7.63;;;;;;;10.53;100.00;98535.88;4206253;28;20567;-63
2022/09/16 00:06:43;;;;;;;13.40;6.83;;;;;;;10.61;100.00;98530.44;4199837;28;20542;-64
2022/09/16 00:09:10;;;;;;;12.70;6.60;;;;;;;10.72;100.00;98537.06;4196105;28;22913;-64
2022/09/16 00:11:36;;;;;;;13.67;6.70;;;;;;;10.78;100.00;98536.31;4200828;28;20376;-66
2022/09/16 00:14:03;;;;;;;14.63;6.87;;;;;;;10.83;100.00;98533.88;4202828;28;22831;-66
2022/09/16 00:16:31;;;;;;;12.00;6.80;;;;;;;10.90;100.00;98523.28;4197682;28;21026;-63
2022/09/16 00:18:59;;;;;;;10.83;6.47;;;;;;;10.89;100.00;98533.13;4205177;28;20240;-66
2022/09/16 00:21:26;;;;;;;9.27;6.07;;;;;;;10.89;100.00;98533.13;4205180;28;20605;-66
2022/09/16 00:23:54;;;;;;;14.47;6.43;;;;;;;10.88;100.00;98534.13;4205910;28;23031;-66
2022/09/16 00:26:22;;;;;;;12.57;6.23;;;;;;;10.89;100.00;98532.31;4195441;28;20233;-62
2022/09/16 00:28:49;;;;;;;15.43;7.17;;;;;;;10.82;100.00;98540.25;4213701;28;20244;-63
2022/09/16 00:31:16;;;;;;;14.70;6.33;;;;;;;10.77;100.00;98538.16;4205123;28;22223;-64
2022/09/16 00:33:43;;;;;;;13.33;6.20;;;;;;;10.77;100.00;98545.31;4198410;28;20263;-66
2022/09/16 00:36:14;;;;;;;14.87;6.40;;;;;;;10.76;100.00;98548.97;4200296;28;20699;-63
2022/09/16 00:38:41;;;;;;;12.50;6.10;;;;;;;10.79;100.00;98545.91;4202259;28;21554;-64
2022/09/16 00:41:13;;;;;;;10.77;6.20;;;;;;;10.77;100.00;98543.47;4202306;28;20242;-65
2022/09/16 00:43:52;;;;;;;10.67;6.43;;;;;;;10.72;100.00;98542.38;4207768;28;20433;-63
2022/09/16 00:46:23;;;;;;;8.87;5.47;;;;;;;10.77;100.00;98545.31;4205379;28;20238;-64
2022/09/16 00:48:50;;;;;;;10.87;5.93;;;;;;;10.66;100.00;98537.84;4202534;28;20255;-63
2022/09/16 00:51:17;;;;;;;9.80;6.03;;;;;;;10.66;100.00;98537.84;4203996;28;22960;-63
2022/09/16 00:53:48;;;;;;;14.03;6.23;;;;;;;10.59;100.00;98543.13;4206960;28;20231;-64
2022/09/16 00:56:17;;;;;;;8.77;6.13;;;;;;;10.56;100.00;98539.00;4211546;28;20306;-63
2022/09/16 00:58:47;;;;;;;11.50;6.13;;;;;;;10.65;100.00;98546.84;4194633;28;20243;-64
2022/09/16 01:01:14;;;;;;;10.70;5.50;;;;;;;10.67;100.00;98550.13;4203311;28;21632;-65
2022/09/16 01:03:54;;;;;;;13.73;6.07;;;;;;;10.64;100.00;98555.84;4190663;28;20436;-66
2022/09/16 01:06:22;;;;;;;11.50;5.90;;;;;;;10.65;100.00;98547.69;4199494;28;21748;-64
2022/09/16 01:08:49;;;;;;;11.87;6.20;;;;;;;10.63;100.00;98538.22;4191076;28;20407;-64
2022/09/16 01:11:16;;;;;;;11.90;5.63;;;;;;;10.78;100.00;98544.28;4198335;28;20794;-62
2022/09/16 01:13:43;;;;;;;12.30;5.80;;;;;;;10.77;100.00;98540.00;4199303;28;20232;-65
2022/09/16 01:16:31;;;;;;;12.07;6.03;;;;;;;10.70;100.00;98539.94;4189800;28;20279;-65
2022/09/16 01:19:14;;;;;;;15.40;5.43;;;;;;;10.71;100.00;98544.22;4192319;28;20317;-65
2022/09/16 01:21:49;;;;;;;11.03;5.67;;;;;;;10.73;100.00;98544.06;4185363;28;20234;-64
2022/09/16 01:24:40;;;;;;;14.47;6.20;;;;;;;10.69;100.00;98554.25;4197036;28;20250;-64
2022/09/16 01:27:19;;;;;;;8.70;5.47;;;;;;;10.71;100.00;98556.72;4198637;28;20416;-65
2022/09/16 01:30:12;;;;;;;10.10;5.43;;;;;;;10.66;100.00;98551.16;4195050;28;20238;-64
2022/09/16 01:33:03;;;;;;;9.93;5.43;;;;;;;10.64;100.00;98559.31;4179414;28;20247;-64
2022/09/16 01:36:00;;;;;;;9.17;4.97;;;;;;;10.69;100.00;98553.44;4214175;28;20617;-63
2022/09/16 01:38:53;;;;;;;10.07;4.83;;;;;;;10.65;100.00;98554.81;4205563;28;20613;-67
2022/09/16 01:42:01;;;;;;;8.37;4.93;;;;;;;10.52;100.00;98545.72;4202585;28;20370;-63
2022/09/16 01:44:44;;;;;;;7.27;4.90;;;;;;;10.59;100.00;98550.28;4203793;28;20246;-63
2022/09/16 01:47:20;;;;;;;13.03;5.33;;;;;;;10.52;100.00;98552.88;4188102;28;23126;-63
2022/09/16 01:50:01;;;;;;;9.70;4.70;;;;;;;10.49;100.00;98556.75;4212389;28;22169;-67
2022/09/16 01:52:28;;;;;;;11.90;5.07;;;;;;;10.49;100.00;98561.25;4221758;28;20659;-64
2022/09/16 01:55:00;;;;;;;13.80;4.73;;;;;;;10.50;100.00;98566.34;4204567;28;20233;-64
2022/09/16 01:57:40;;;;;;;11.03;4.90;;;;;;;10.59;100.00;98564.41;4180366;28;20239;-63
2022/09/16 02:00:12;;;;;;;11.93;4.67;;;;;;;10.65;100.00;98562.78;4190012;28;20236;-64
2022/09/16 02:02:40;;;;;;;9.13;4.07;;;;;;;10.72;100.00;98564.53;4202966;28;22121;-64
2022/09/16 02:05:12;;;;;;;10.77;4.57;;;;;;;10.74;100.00;98574.94;4199853;28;22910;-64
2022/09/16 02:07:42;;;;;;;10.70;4.37;;;;;;;10.81;100.00;98567.03;4192184;28;20826;-65
2022/09/16 02:10:22;;;;;;;7.53;3.80;;;;;;;10.82;100.00;98568.69;4201280;28;21105;-64
2022/09/16 02:12:49;;;;;;;8.87;4.30;;;;;;;10.76;100.00;98568.41;4196498;28;20239;-65
2022/09/16 02:15:20;;;;;;;10.23;4.10;;;;;;;10.78;100.00;98568.25;4184784;28;20675;-64
2022/09/16 02:17:55;;;;;;;11.27;4.30;;;;;;;10.81;100.00;98567.84;4201281;28;20252;-66
2022/09/16 02:20:26;;;;;;;8.73;3.97;;;;;;;10.83;100.00;98576.47;4190160;28;20277;-63
2022/09/16 02:22:58;;;;;;;10.80;4.33;;;;;;;10.84;100.00;98578.13;4197767;28;20259;-65
2022/09/16 02:25:25;;;;;;;8.30;4.40;;;;;;;10.86;100.00;98572.59;4203855;28;20306;-66
2022/09/16 02:27:52;;;;;;;9.50;4.03;;;;;;;10.89;100.00;98569.56;4201294;28;20230;-61
2022/09/16 02:30:20;;;;;;;16.43;4.27;;;;;;;10.79;100.00;98569.88;4192091;28;20265;-63
2022/09/16 02:32:55;;;;;;;6.20;3.90;;;;;;;10.69;100.00;98566.72;4191422;28;20245;-64
2022/09/16 02:35:23;;;;;;;10.20;4.10;;;;;;;10.66;100.00;98569.78;4189358;28;20275;-64
2022/09/16 02:38:21;;;;;;;10.43;3.87;;;;;;;10.59;100.00;98561.72;4193837;28;20231;-63
2022/09/16 02:40:56;;;;;;;8.13;4.37;;;;;;;10.65;100.00;98565.47;4199884;28;20644;-62
2022/09/16 02:43:23;;;;;;;8.87;4.00;;;;;;;10.67;100.00;98560.78;4212230;28;20991;-64
2022/09/16 02:45:58;;;;;;;10.10;4.87;;;;;;;10.62;100.00;98563.19;4202332;28;20557;-64
2022/09/16 02:48:38;;;;;;;7.00;4.13;;;;;;;10.61;100.00;98564.22;4207991;28;20596;-66
2022/09/16 02:51:41;;;;;;;13.57;4.53;;;;;;;10.56;100.00;98560.28;4208099;28;20436;-64
2022/09/16 02:54:21;;;;;;;9.27;4.20;;;;;;;10.65;100.00;98552.16;4184179;28;21054;-63
2022/09/16 02:56:48;;;;;;;9.00;4.70;;;;;;;10.71;100.00;98567.34;4199199;28;20314;-64
2022/09/16 02:59:16;;;;;;;10.10;3.80;;;;;;;10.69;100.00;98566.72;4192545;28;20241;-63
2022/09/16 03:01:45;;;;;;;8.50;4.90;;;;;;;10.70;100.00;98560.38;4193391;28;21513;-64
2022/09/16 03:04:13;;;;;;;14.07;4.70;;;;;;;10.67;100.00;98558.94;4212655;28;21603;-64
2022/09/16 03:06:40;;;;;;;8.77;4.20;;;;;;;10.77;100.00;98561.28;4198011;28;20235;-64
2022/09/16 03:09:11;;;;;;;11.80;4.77;;;;;;;10.74;100.00;98562.47;4200209;28;20239;-63
2022/09/16 03:11:57;;;;;;;13.10;4.60;;;;;;;10.68;100.00;98557.13;4201518;28;21887;-65
2022/09/16 03:14:51;;;;;;;8.90;5.00;;;;;;;10.55;100.00;98563.13;4207693;28;23205;-65
2022/09/16 03:17:39;;;;;;;8.50;4.60;;;;;;;10.53;100.00;98560.66;4214746;28;22023;-63
2022/09/16 03:20:25;;;;;;;9.43;4.77;;;;;;;10.48;100.00;98572.88;4208837;28;20237;-66
2022/09/16 03:23:25;;;;;;;10.43;4.83;;;;;;;10.52;100.00;98566.16;4225620;28;20231;-65
2022/09/16 03:25:57;;;;;;;11.63;4.57;;;;;;;10.41;100.00;98564.00;4184810;28;22822;-65
2022/09/16 03:28:27;;;;;;;13.40;5.50;;;;;;;10.42;100.00;98566.50;4205273;28;20433;-64
2022/09/16 03:31:06;;;;;;;8.43;4.90;;;;;;;10.34;100.00;98569.25;4203070;28;20254;-67
2022/09/16 03:33:46;;;;;;;8.37;5.07;;;;;;;10.30;100.00;98562.69;4205790;28;20235;-64
2022/09/16 03:36:14;;;;;;;13.00;5.37;;;;;;;10.27;100.00;98573.66;4198396;28;20228;-64
2022/09/16 03:38:41;;;;;;;12.83;4.70;;;;;;;10.28;100.00;98577.97;4203345;28;20227;-65
2022/09/16 03:41:09;;;;;;;8.27;4.70;;;;;;;10.15;100.00;98576.81;4191133;28;20799;-63
2022/09/16 03:43:35;;;;;;;11.13;5.03;;;;;;;10.18;100.00;98578.25;4197713;28;21532;-64
2022/09/16 03:46:02;;;;;;;14.13;5.07;;;;;;;10.12;100.00;98579.84;4201308;28;20240;-63
2022/09/16 03:48:28;;;;;;;10.77;5.23;;;;;;;10.12;100.00;98574.53;4200668;28;26728;-63
2022/09/16 03:50:55;;;;;;;9.27;4.70;;;;;;;10.08;100.00;98583.06;4197596;28;22710;-62
2022/09/16 03:53:21;;;;;;;14.73;5.43;;;;;;;10.10;100.00;98581.88;4202086;28;20628;-64
2022/09/16 03:55:49;;;;;;;16.03;5.80;;;;;;;10.10;100.00;98571.25;4204220;28;20232;-64
2022/09/16 03:58:15;;;;;;;11.80;5.60;;;;;;;10.05;100.00;98578.97;4199843;28;20592;-65
2022/09/16 04:00:42;;;;;;;11.47;5.27;;;;;;;10.09;100.00;98584.72;4202154;28;20245;-62
2022/09/16 04:03:08;;;;;;;9.17;5.20;;;;;;;10.20;100.00;98586.06;4209866;28;20241;-64
2022/09/16 04:05:35;;;;;;;13.53;4.80;;;;;;;10.05;100.00;98584.28;4208362;28;20242;-64
2022/09/16 04:08:01;;;;;;;12.30;5.50;;;;;;;10.00;100.00;98586.69;4192380;28;20229;-65
2022/09/16 04:10:28;;;;;;;9.23;5.23;;;;;;;10.04;100.00;98581.78;4206073;28;20311;-63
2022/09/16 04:12:57;;;;;;;14.17;5.40;;;;;;;9.99;100.00;98586.84;4205373;28;20303;-67
2022/09/16 04:15:24;;;;;;;11.50;5.70;;;;;;;10.02;100.00;98589.97;4199737;28;20322;-62
2022/09/16 04:17:50;;;;;;;13.50;5.30;;;;;;;10.05;100.00;98578.16;4206789;28;21081;-64
2022/09/16 04:20:17;;;;;;;10.37;5.53;;;;;;;10.01;100.00;98585.66;4201856;28;20241;-64
2022/09/16 04:22:44;;;;;;;13.33;5.50;;;;;;;9.94;100.00;98588.22;4214410;28;20233;-63
2022/09/16 04:25:10;;;;;;;13.13;5.77;;;;;;;9.98;100.00;98588.69;4208914;28;20248;-63
2022/09/16 04:27:37;;;;;;;11.43;5.57;;;;;;;10.05;100.00;98586.94;4204641;28;22722;-62
2022/09/16 04:30:04;;;;;;;14.47;5.60;;;;;;;10.05;100.00;98592.25;4214673;28;20232;-63
2022/09/16 04:32:31;;;;;;;11.77;6.27;;;;;;;10.06;100.00;98590.41;4236819;28;20233;-65
2022/09/16 04:34:58;;;;;;;15.33;6.27;;;;;;;10.02;100.00;98587.31;4219995;28;21734;-67
2022/09/16 04:37:24;;;;;;;10.00;5.70;;;;;;;10.06;100.00;98583.25;4194950;28;20234;-67
2022/09/16 04:39:52;;;;;;;13.53;6.40;;;;;;;10.06;100.00;98579.78;4216916;28;20419;-65
2022/09/16 04:42:18;;;;;;;13.80;6.17;;;;;;;10.07;100.00;98590.22;4216784;28;20243;-64
2022/09/16 04:44:45;;;;;;;12.17;5.77;;;;;;;10.08;100.00;98591.88;4200613;28;20360;-64
2022/09/16 04:47:11;;;;;;;12.60;6.13;;;;;;;10.09;100.00;98592.69;4193133;28;20235;-64
2022/09/16 04:49:38;;;;;;;13.33;5.37;;;;;;;10.10;100.00;98594.34;4205982;28;20423;-63
2022/09/16 04:52:04;;;;;;;12.67;5.63;;;;;;;10.12;100.00;98595.81;4204127;28;20307;-65
2022/09/16 04:54:31;;;;;;;10.27;5.63;;;;;;;10.10;100.00;98603.13;4209867;28;20229;-68
2022/09/16 04:56:58;;;;;;;11.57;5.37;;;;;;;10.12;100.00;98601.13;4210823;28;20239;-65
2022/09/16 04:59:24;;;;;;;11.87;5.70;;;;;;;10.01;100.00;98606.91;4204839;28;20229;-62
2022/09/16 05:01:51;;;;;;;9.43;5.70;;;;;;;10.10;100.00;98605.78;4207570;28;20524;-64
2022/09/16 05:04:17;;;;;;;10.03;5.63;;;;;;;10.13;100.00;98612.56;4195437;28;22251;-65
2022/09/16 05:06:44;;;;;;;10.30;4.93;;;;;;;10.13;100.00;98610.72;4219608;28;20335;-65
2022/09/16 05:09:11;;;;;;;12.27;5.20;;;;;;;10.20;100.00;98610.81;4207216;28;20604;-62
2022/09/16 05:11:39;;;;;;;11.10;5.00;;;;;;;10.18;100.00;98604.03;4203501;28;20240;-62
2022/09/16 05:14:08;;;;;;;12.90;4.80;;;;;;;10.16;100.00;98601.56;4181645;28;21878;-66
2022/09/16 05:16:35;;;;;;;10.90;4.30;;;;;;;10.20;100.00;98596.69;4189285;28;20233;-65
2022/09/16 05:19:05;;;;;;;7.20;4.57;;;;;;;10.22;100.00;98600.00;4206782;28;20303;-65
2022/09/16 05:21:34;;;;;;;11.17;4.83;;;;;;;10.24;100.00;98611.25;4192052;28;20392;-63
2022/09/16 05:24:02;;;;;;;8.23;4.33;;;;;;;10.32;100.00;98611.16;4202285;28;20236;-62
2022/09/16 05:26:30;;;;;;;10.40;4.57;;;;;;;10.34;100.00;98609.16;4202957;28;20224;-64
2022/09/16 05:29:04;;;;;;;8.50;4.20;;;;;;;10.48;100.00;98608.25;4198287;28;22539;-63
2022/09/16 05:31:33;;;;;;;11.73;3.93;;;;;;;10.49;100.00;98612.59;4186053;28;21830;-63
2022/09/16 05:34:12;;;;;;;8.43;4.10;;;;;;;10.48;100.00;98613.59;4206086;28;20520;-64
2022/09/16 05:36:42;;;;;;;9.90;3.57;;;;;;;10.55;100.00;98617.13;4199306;28;20627;-62
2022/09/16 05:39:10;;;;;;;11.33;4.37;;;;;;;10.59;100.00;98622.09;4199648;28;22831;-62
2022/09/16 05:41:52;;;;;;;10.33;3.50;;;;;;;10.71;100.00;98621.38;4199470;28;20236;-63
2022/09/16 05:44:18;;;;;;;9.73;3.80;;;;;;;10.75;100.00;98632.47;4198440;28;20371;-65
2022/09/16 05:46:45;;;;;;;7.47;3.43;;;;;;;10.71;100.00;98618.72;4211257;28;20305;-62
2022/09/16 05:49:11;;;;;;;5.90;3.50;;;;;;;10.80;100.00;98624.75;4202584;28;20255;-62
2022/09/16 05:51:40;;;;;;;6.53;3.27;;;;;;;10.89;100.00;98628.09;4216085;28;21792;-60
2022/09/16 05:54:06;;;;;;;11.63;3.87;;;;;;;10.93;100.00;98626.69;4198042;28;20815;-61
2022/09/16 05:56:33;;;;;;;8.77;3.93;;;;;;;11.05;100.00;98626.97;4216420;28;21523;-65
2022/09/16 05:59:00;;;;;;;9.23;3.73;;;;;;;10.99;100.00;98624.09;4199526;28;20237;-69
2022/09/16 06:01:31;;;;;;;10.43;3.87;;;;;;;11.10;100.00;98624.59;4201763;28;25112;-64
2022/09/16 06:04:03;;;;;;;6.90;3.57;;;;;;;11.19;100.00;98628.72;4210352;28;26748;-63
2022/09/16 06:06:31;;;;;;;9.47;3.63;;;;;;;11.17;100.00;98625.47;4204445;28;21121;-60
2022/09/16 06:08:59;;;;;;;12.00;3.77;;;;;;;11.16;100.00;98615.81;4191306;28;20246;-61
2022/09/16 06:11:27;;;;;;;8.03;3.50;;;;;;;11.21;100.00;98616.06;4198646;28;20308;-62
2022/09/16 06:13:58;;;;;;;7.63;3.50;;;;;;;11.35;100.00;98615.13;4207023;28;21328;-60
2022/09/16 06:16:26;;;;;;;5.73;3.10;;;;;;;11.31;100.00;98613.88;4199596;28;20241;-64
2022/09/16 06:18:54;;;;;;;7.53;3.40;;;;;;;11.43;100.00;98613.34;4205158;28;20301;-62
2022/09/16 06:21:21;;;;;;;8.47;3.23;;;;;;;11.48;100.00;98621.56;4197356;28;25617;-61
2022/09/16 06:23:48;;;;;;;8.80;3.07;;;;;;;11.57;99.94;98621.22;4203107;28;20635;-63
2022/09/16 06:26:18;;;;;;;7.40;3.17;;;;;;;11.51;99.00;98614.00;4193772;28;20625;-60
2022/09/16 06:28:45;;;;;;;8.47;3.17;;;;;;;11.62;98.84;98620.63;4193312;28;20263;-61
2022/09/16 06:31:14;;;;;;;8.37;3.30;;;;;;;11.53;98.35;98617.28;4188247;28;25666;-66
2022/09/16 06:33:40;;;;;;;11.73;3.30;;;;;;;11.54;99.21;98621.63;4195036;28;20455;-63
2022/09/16 06:36:12;;;;;;;8.17;3.13;;;;;;;11.61;98.65;98619.81;4194883;28;22026;-62
2022/09/16 06:38:39;;;;;;;10.97;3.23;;;;;;;11.65;98.46;98612.22;4194171;28;20297;-61
2022/09/16 06:41:08;;;;;;;8.07;2.57;;;;;;;11.80;97.40;98623.59;4193938;28;22157;-63
2022/09/16 06:43:35;;;;;;;7.03;2.63;;;;;;;11.76;96.62;98626.84;4199319;28;22439;-62
2022/09/16 06:46:09;;;;;;;10.07;2.93;;;;;;;11.75;95.87;98615.38;4189523;28;22902;-61
2022/09/16 06:48:35;;;;;;;9.37;3.10;;;;;;;11.72;96.22;98614.94;4186853;28;20236;-64
2022/09/16 06:51:05;;;;;;;7.00;2.30;;;;;;;11.75;96.28;98610.06;4193326;28;20763;-64
2022/09/16 06:53:32;;;;;;;8.83;2.90;;;;;;;11.86;95.70;98602.50;4201153;28;20252;-61
2022/09/16 06:56:00;;;;;;;6.70;2.70;;;;;;;11.90;96.50;98601.13;4199221;28;21109;-61
2022/09/16 06:58:30;;;;;;;6.83;2.80;;;;;;;11.94;95.28;98613.00;4197756;28;20238;-64
2022/09/16 07:00:57;;;;;;;7.43;2.40;;;;;;;12.14;94.30;98611.25;4206046;28;20248;-62
2022/09/16 07:03:24;;;;;;;10.60;2.30;;;;;;;12.12;93.92;98618.63;4211301;28;23470;-65
2022/09/16 07:05:59;;;;;;;11.57;2.60;;;;;;;12.37;91.77;98615.44;4200126;28;20493;-63
2022/09/16 07:08:27;;;;;;;7.30;2.20;;;;;;;12.76;90.25;98628.03;4204661;28;20243;-64
2022/09/16 07:11:02;;;;;;;8.23;2.20;;;;;;;13.49;86.63;98636.06;4211770;28;20279;-63
2022/09/16 07:13:29;;;;;;;9.00;1.90;;;;;;;15.90;71.60;98652.31;4200966;28;20240;-64
2022/09/16 07:16:00;;;;;;;9.43;2.27;;;;;;;17.54;63.76;98659.31;4205490;28;20451;-62
2022/09/16 07:18:38;;;;;;;7.77;1.90;;;;;;;18.12;58.06;98668.38;4252454;28;26428;-63
2022/09/16 07:21:17;;;;;;;8.57;1.90;;;;;;;17.70;59.50;98666.66;4211093;28;20247;-65
2022/09/16 07:23:44;;;;;;;10.50;2.00;;;;;;;17.69;59.95;98669.56;4213017;28;20419;-63
2022/09/16 07:26:20;;;;;;;7.63;1.93;;;;;;;19.35;53.50;98681.44;4217754;28;20423;-65
2022/09/16 07:28:47;;;;;;;5.07;1.47;;;;;;;20.31;49.04;98689.31;4202513;28;20284;-63
2022/09/16 07:31:17;;;;;;;10.67;1.70;;;;;;;20.08;47.56;98684.97;4226905;28;20364;-65
2022/09/16 07:33:47;;;;;;;9.93;1.70;;;;;;;20.44;46.00;98683.53;4220662;28;20258;-65
2022/09/16 07:36:19;;;;;;;10.93;1.70;;;;;;;20.54;44.88;98692.84;4217032;28;21738;-63
2022/09/16 07:38:46;;;;;;;10.37;1.60;;;;;;;20.10;46.62;98696.34;4227834;28;20810;-62
2022/09/16 07:41:15;;;;;;;14.97;1.77;;;;;;;20.49;43.39;98696.28;4204161;28;20243;-64
2022/09/16 07:43:42;;;;;;;8.77;1.63;;;;;;;20.57;44.11;98695.84;4207955;28;20261;-61
2022/09/16 07:46:11;;;;;;;6.80;1.63;;;;;;;18.85;47.84;98687.63;4184325;28;20240;-65
2022/09/16 07:48:38;;;;;;;5.63;1.47;;;;;;;18.91;47.25;98678.53;4229034;28;20878;-64
2022/09/16 07:51:07;;;;;;;14.53;1.60;;;;;;;18.54;48.61;98693.22;4191070;28;20234;-71
2022/09/16 07:53:35;;;;;;;11.17;2.00;;;;;;;20.06;45.25;98695.19;4221802;28;21874;-68
2022/09/16 07:56:10;;;;;;;6.83;1.60;;;;;;;21.32;41.65;98697.94;4197260;28;21138;-66
2022/09/16 07:58:40;;;;;;;8.73;1.43;;;;;;;21.55;39.54;98710.34;4194680;28;20304;-67
2022/09/16 08:01:07;;;;;;;9.57;1.77;;;;;;;22.47;37.91;98716.31;4196826;28;20230;-66
2022/09/16 08:03:34;;;;;;;8.50;1.70;;;;;;;22.99;36.77;98718.09;4201475;28;20367;-69
2022/09/16 08:06:11;;;;;;;9.00;1.67;;;;;;;21.53;39.37;98715.19;4216179;28;20241;-84
2022/09/16 08:08:38;;;;;;;6.67;1.50;;;;;;;19.95;40.83;98701.53;4273392;28;20230;-80
2022/09/16 08:11:06;;;;;;;9.20;1.70;;;;;;;19.08;43.50;98694.75;4192885;28;20241;-79
2022/09/16 08:13:34;;;;;;;13.33;1.47;;;;;;;19.16;43.44;98687.06;4318160;28;22561;-80
2022/09/16 08:16:11;;;;;;;6.67;1.50;;;;;;;20.27;41.99;98693.56;4293698;28;20239;-78
2022/09/16 08:18:38;;;;;;;11.37;1.83;;;;;;;20.38;39.60;98700.75;4199582;28;23202;-82
2022/09/16 08:21:12;;;;;;;8.07;1.47;;;;;;;17.26;46.55;98682.31;4217540;28;20656;-77
2022/09/16 08:23:41;;;;;;;6.20;1.20;;;;;;;16.92;48.68;98674.97;4223040;28;20556;-83
2022/09/16 08:26:12;;;;;;;15.10;2.33;;;;;;;16.86;51.62;98671.34;4272621;28;20367;-80
2022/09/16 08:28:41;;;;;;;9.90;1.67;;;;;;;17.25;50.80;98669.91;4256899;28;21903;-80
2022/09/16 08:31:23;;;;;;;6.70;1.37;;;;;;;17.17;51.56;98672.94;4205257;28;20810;-40
2022/09/16 08:33:49;;;;;;;13.57;1.60;;;;;;;16.78;51.05;98669.75;4188845;28;20713;-75
2022/09/16 08:36:19;;;;;;;8.77;1.50;;;;;;;16.61;52.81;98653.47;4205814;28;22071;-76
2022/09/16 08:38:48;;;;;;;11.07;1.33;;;;;;;16.45;53.01;98665.66;4207069;28;21708;-75
2022/09/16 08:41:54;;;;;;;9.30;1.70;;;;;;;16.67;52.52;98652.56;4228078;28;22279;-72
2022/09/16 08:44:32;;;;;;;6.03;1.57;;;;;;;16.85;50.34;98654.41;4223692;28;26066;-72
2022/09/16 08:47:01;;;;;;;7.40;1.40;;;;;;;16.72;51.36;98659.94;4229885;28;20320;-75
2022/09/16 08:49:35;;;;;;;7.73;1.83;;;;;;;16.66;52.36;98660.84;4218500;28;20393;-76
2022/09/16 08:52:10;;;;;;;13.13;2.27;;;;;;;16.57;52.87;98656.84;4193720;28;20236;-73
2022/09/16 08:54:45;;;;;;;6.93;1.37;;;;;;;16.24;52.49;98672.31;4260870;28;20230;-78
2022/09/16 08:57:19;;;;;;;5.73;1.13;;;;;;;16.16;51.70;98658.41;4255040;28;20235;-78
2022/09/16 09:00:10;;;;;;;11.40;1.80;;;;;;;15.62;52.97;98656.28;4247394;28;20329;-75
2022/09/16 09:02:46;;;;;;;8.53;1.57;;;;;;;15.38;54.56;98654.44;4201894;28;21282;-78
2022/09/16 09:05:18;;;;;;;7.03;1.47;;;;;;;15.17;54.25;98656.47;4196264;28;20461;-73
2022/09/16 09:08:08;;;;;;;6.83;1.60;;;;;;;14.96;55.82;98654.16;4227668;28;20309;-74
2022/09/16 09:10:41;;;;;;;8.40;1.50;;;;;;;14.88;56.10;98657.91;4221817;28;20364;-76
2022/09/16 09:13:37;;;;;;;10.83;1.30;;;;;;;14.84;57.15;98653.22;4202101;28;20237;-74
2022/09/16 09:16:15;;;;;;;10.03;1.60;;;;;;;14.64;59.08;98654.16;4222204;28;20228;-74
2022/09/16 09:18:58;;;;;;;11.00;1.77;;;;;;;14.59;60.21;98659.34;4199961;28;20230;-71
2022/09/16 09:21:47;;;;;;;12.40;1.80;;;;;;;14.68;60.50;98660.75;4192199;28;20431;-73
2022/09/16 09:24:47;;;;;;;8.80;1.60;;;;;;;14.85;60.13;98657.53;4207371;28;22582;-73
2022/09/16 09:27:40;;;;;;;11.93;1.50;;;;;;;14.88;59.00;98668.63;4222268;28;20335;-76
2022/09/16 09:30:20;;;;;;;8.70;1.60;;;;;;;15.22;57.68;98668.38;4218543;28;20312;-76
2022/09/16 09:33:02;;;;;;;16.60;1.57;;;;;;;15.42;56.68;98671.72;4201635;28;20279;-73
2022/09/16 09:35:46;;;;;;;8.03;1.33;;;;;;;15.67;55.62;98673.56;4206622;28;20409;-75
2022/09/16 09:38:31;;;;;;;8.40;1.30;;;;;;;15.56;56.60;98667.88;4205218;28;20959;-75
2022/09/16 09:41:47;;;;;;;5.23;1.20;;;;;;;15.64;55.82;98666.78;4209535;28;20596;-73
2022/09/16 09:44:36;;;;;;;7.67;1.87;;;;;;;15.32;56.35;98660.69;4150332;29;21054;-76
2022/09/16 09:47:09;;;;;;;7.50;1.73;;;;;;;15.49;56.47;98660.94;4139867;29;20672;-39
2022/09/16 09:49:49;;;;;;;9.53;1.50;;;;;;;15.50;56.05;98668.78;4187401;28;20477;-40
2022/09/16 09:52:27;;;;;;;7.83;1.27;;;;;;;15.27;56.46;98664.03;4204928;28;20294;-70
2022/09/16 09:54:54;;;;;;;8.90;0.97;;;;;;;15.15;54.72;98666.59;4195956;28;21847;-69
2022/09/16 09:57:29;;;;;;;5.97;0.97;;;;;;;14.91;56.98;98664.69;4198547;28;25440;-70
2022/09/16 10:00:13;;;;;;;10.57;1.70;;;;;;;15.02;56.52;98665.88;4186624;28;21200;-72
2022/09/16 10:02:41;;;;;;;8.87;1.10;;;;;;;14.75;56.91;98669.56;4217850;28;20237;-73
2022/09/16 10:05:25;;;;;;;9.43;1.07;;;;;;;14.54;57.66;98675.25;4220560;28;21387;-71
2022/09/16 10:07:54;;;;;;;2.27;1.00;;;;;;;14.46;60.24;98664.72;4211735;28;20296;-69
2022/09/16 10:10:23;;;;;;;11.20;1.20;;;;;;;14.50;60.77;98658.75;4203545;28;20229;-71
2022/09/16 10:12:50;;;;;;;14.83;1.50;;;;;;;14.71;60.24;98662.97;4211944;28;20328;-69
2022/09/16 10:15:35;;;;;;;10.27;1.47;;;;;;;14.74;60.99;98665.22;4192154;28;20257;-68
2022/09/16 10:18:10;;;;;;;8.90;1.37;;;;;;;14.75;62.12;98669.56;4201445;28;20237;-71
2022/09/16 10:20:40;;;;;;;9.40;1.63;;;;;;;14.71;61.58;98659.50;4218264;28;20240;-69
2022/09/16 10:23:14;;;;;;;9.47;1.27;;;;;;;14.73;61.72;98668.13;4207406;28;20485;-68
2022/09/16 10:25:41;;;;;;;7.20;1.30;;;;;;;14.73;61.41;98663.59;4206681;28;20381;-68
2022/09/16 10:28:19;;;;;;;9.93;1.40;;;;;;;14.63;62.79;98663.22;4209122;28;20439;-68
2022/09/16 10:30:57;;;;;;;9.63;1.40;;;;;;;14.66;62.27;98657.44;4212630;28;20572;-70
2022/09/16 10:33:31;;;;;;;5.73;1.10;;;;;;;14.75;61.78;98672.22;4201251;28;20300;-68
2022/09/16 10:36:09;;;;;;;6.13;1.37;;;;;;;14.82;62.09;98669.50;4238943;28;20544;-71
2022/09/16 10:38:40;;;;;;;9.43;1.63;;;;;;;14.92;61.84;98666.34;4195866;28;20257;-70
2022/09/16 10:41:24;;;;;;;9.03;1.47;;;;;;;15.05;60.98;98668.91;4201204;28;20237;-69
2022/09/16 10:43:53;;;;;;;6.93;1.20;;;;;;;15.16;60.34;98667.41;4197255;28;20704;-70
2022/09/16 10:46:20;;;;;;;8.70;1.60;;;;;;;15.36;59.83;98667.25;4191631;28;20243;-69
2022/09/16 10:48:48;;;;;;;4.33;0.90;;;;;;;15.66;57.32;98675.41;4209532;28;20232;-71
2022/09/16 10:51:26;;;;;;;6.50;1.20;;;;;;;15.80;55.85;98674.28;4232879;28;20241;-70
2022/09/16 10:53:58;;;;;;;4.13;0.90;;;;;;;15.63;52.03;98654.41;4205590;28;20272;-68
2022/09/16 10:56:28;;;;;;;7.30;1.10;;;;;;;15.91;54.97;98659.31;4211709;28;21504;-69
2022/09/16 10:59:05;;;;;;;6.83;1.47;;;;;;;16.33;55.05;98669.34;4241892;28;20353;-70
2022/09/16 11:01:50;;;;;;;6.97;1.20;;;;;;;16.46;53.03;98672.69;4204913;28;20571;-70
2022/09/16 11:04:57;;;;;;;3.73;0.90;;;;;;;16.27;49.64;98665.69;4204756;28;20251;-69
2022/09/16 11:07:38;;;;;;;4.57;1.07;;;;;;;16.42;50.19;98670.69;4216826;28;20558;-68
2022/09/16 11:10:14;;;;;;;4.93;0.70;;;;;;;16.46;47.99;98656.59;4192443;28;20237;-73
2022/09/16 11:12:57;;;;;;;7.17;1.10;;;;;;;16.63;48.86;98672.88;4208933;28;26373;-70
2022/09/16 11:15:45;;;;;;;4.90;0.80;;;;;;;16.18;47.99;98677.81;4201865;28;20241;-71
2022/09/16 11:18:45;;;;;;;7.40;0.80;;;;;;;15.72;50.22;98668.38;4222053;28;20242;-71
2022/09/16 11:21:42;;;;;;;7.27;0.97;;;;;;;15.63;51.44;98663.25;4200899;28;20232;-68
2022/09/16 11:24:19;;;;;;;3.03;0.70;;;;;;;15.66;47.34;98661.19;4202470;28;20225;-73
2022/09/16 11:27:18;;;;;;;15.77;1.40;;;;;;;16.01;48.40;98659.63;4186791;28;20343;-69
2022/09/16 11:30:14;;;;;;;3.67;0.70;;;;;;;16.24;47.56;98652.72;4237866;28;20343;-72
2022/09/16 11:33:05;;;;;;;4.27;0.80;;;;;;;16.15;45.91;98643.34;4222545;28;20228;-72
2022/09/16 11:35:55;;;;;;;5.07;0.80;;;;;;;16.14;46.35;98641.72;4234222;28;21710;-71
2022/09/16 11:38:43;;;;;;;3.47;0.70;;;;;;;16.39;45.57;98639.75;4212538;28;20229;-71
2022/09/16 11:41:31;;;;;;;6.70;0.87;;;;;;;16.53;44.63;98634.16;4203308;28;20498;-71
2022/09/16 11:44:19;;;;;;;3.17;0.60;;;;;;;16.67;44.23;98624.91;4224092;28;20271;-69
2022/09/16 11:47:04;;;;;;;7.03;0.90;;;;;;;16.35;43.69;98649.28;4232532;28;20425;-70
2022/09/16 11:50:09;;;;;;;7.23;0.80;;;;;;;16.32;44.27;98641.69;4221502;28;20579;-70
2022/09/16 11:53:03;;;;;;;4.33;0.80;;;;;;;16.58;45.56;98637.00;4224504;28;20236;-70
2022/09/16 11:55:52;;;;;;;7.40;1.00;;;;;;;16.57;44.46;98640.72;4233102;28;20241;-69